Time;durP1;ratioP1;P1;durP2;ratioP2;P2;SDS_P1;SDS_P2;PMS_P1;PMS_P2;Temp;Humidity;BMP_temperature;BMP_pressure;BME280_temperature;BME280_humidity;BME280_pressure;Samples;Min_cycle;Max_cycle;Signal;HPM_P1;HPM_P2
2022/04/15 00:02:20;;;;;;;;;;;;;;;20.58;76.85;102342.91;5059330;28;19947;-58
2022/04/15 00:04:46;;;;;;;;;;;;;;;20.58;75.99;102342.91;5064094;28;19920;-59
2022/04/15 00:07:11;;;;;;;;;;;;;;;20.49;76.63;102340.47;5063544;28;19913;-57
2022/04/15 00:09:37;;;;;;;;;;;;;;;20.46;76.39;102346.38;5063131;28;19917;-59
2022/04/15 00:12:07;;;;;;;;;;;;;;;20.27;76.42;102340.09;5060699;28;19913;-60
2022/04/15 00:14:33;;;;;;;;;;;;;;;20.00;79.46;102347.66;5064708;28;19976;-58
2022/04/15 00:16:58;;;;;;;;;;;;;;;19.90;80.52;102339.97;5062877;28;19936;-58
2022/04/15 00:19:23;;;;;;;;;;;;;;;19.88;80.21;102342.91;5056545;28;19917;-57
2022/04/15 00:21:50;;;;;;;;;;;;;;;19.91;79.86;102337.06;5058615;28;19920;-58
2022/04/15 00:24:16;;;;;;;;;;;;;;;19.88;79.47;102340.22;5067089;28;19948;-56
2022/04/15 00:26:41;;;;;;;;;;;;;;;19.89;79.52;102350.00;5067301;28;19920;-58
2022/04/15 00:29:07;;;;;;;;;;;;;;;19.81;79.69;102344.84;5061675;28;20101;-56
2022/04/15 00:31:33;;;;;;;;;;;;;;;19.89;78.99;102350.00;5059438;28;19917;-59
2022/04/15 00:33:59;;;;;;;;;;;;;;;19.87;78.92;102354.00;5072725;28;19913;-56
2022/04/15 00:36:24;;;;;;;;;;;;;;;19.70;79.88;102346.38;5067291;28;19924;-57
2022/04/15 00:38:50;;;;;;;;;;;;;;;19.81;80.26;102352.16;5063919;28;20306;-56
2022/04/15 00:41:15;;;;;;;;;;;;;;;19.92;77.88;102355.03;5067401;28;19944;-57
2022/04/15 00:43:41;;;;;;;;;;;;;;;19.70;79.92;102353.72;5066132;28;19913;-59
2022/04/15 00:46:07;;;;;;;;;;;;;;;19.59;81.31;102360.66;5068959;28;19917;-57
2022/04/15 00:48:34;;;;;;;;;;;;;;;19.55;81.56;102365.69;5067477;28;20071;-58
2022/04/15 00:51:00;;;;;;;;;;;;;;;19.56;81.61;102361.94;5062058;28;19912;-59
2022/04/15 00:53:28;;;;;;;;;;;;;;;19.51;82.37;102369.91;5072788;28;19917;-57
2022/04/15 00:55:57;;;;;;;;;;;;;;;19.68;80.75;102366.66;5052763;28;19923;-57
2022/04/15 00:58:24;;;;;;;;;;;;;;;19.77;79.11;102362.63;5063882;28;19963;-58
2022/04/15 01:00:52;;;;;;;;;;;;;;;19.16;81.98;102370.31;5054487;28;19917;-59
2022/04/15 01:03:20;;;;;;;;;;;;;;;18.28;96.67;102362.38;5071499;28;19944;-59
2022/04/15 01:05:47;;;;;;;;;;;;;;;18.54;95.51;102362.56;5068734;28;19935;-58
2022/04/15 01:08:13;;;;;;;;;;;;;;;18.49;95.81;102360.47;5065170;28;19923;-57
2022/04/15 01:10:38;;;;;;;;;;;;;;;18.49;96.53;102365.91;5072143;28;19995;-56
2022/04/15 01:13:07;;;;;;;;;;;;;;;18.81;92.15;102365.19;5063732;28;19917;-57
2022/04/15 01:15:32;;;;;;;;;;;;;;;18.57;95.15;102365.69;5063742;28;19935;-56
2022/04/15 01:17:58;;;;;;;;;;;;;;;18.77;95.56;102370.19;5068909;28;20004;-54
2022/04/15 01:20:23;;;;;;;;;;;;;;;18.70;96.51;102363.97;5074316;28;19962;-58
2022/04/15 01:23:03;;;;;;;;;;;;;;;18.76;96.27;102374.81;5063926;28;19923;-55
2022/04/15 01:25:28;;;;;;;;;;;;;;;18.53;98.14;102375.25;5073440;28;19920;-53
2022/04/15 01:27:57;;;;;;;;;;;;;;;18.56;99.10;102384.84;5070124;28;19925;-58
2022/04/15 01:30:22;;;;;;;;;;;;;;;18.79;95.04;102384.38;5064193;28;19917;-57
2022/04/15 01:32:48;;;;;;;;;;;;;;;18.80;95.17;102388.78;5066653;28;19984;-57
2022/04/15 01:35:15;;;;;;;;;;;;;;;18.92;93.77;102381.63;5063533;28;19913;-57
2022/04/15 01:37:40;;;;;;;;;;;;;;;18.86;93.19;102385.19;5045976;28;19937;-58
2022/04/15 01:40:07;;;;;;;;;;;;;;;18.87;92.21;102386.03;5067573;28;19916;-58
2022/04/15 01:42:34;;;;;;;;;;;;;;;18.89;92.09;102390.19;5063278;28;19913;-58
2022/04/15 01:45:00;;;;;;;;;;;;;;;19.83;80.13;102394.31;5060931;28;19980;-59
2022/04/15 01:47:25;;;;;;;;;;;;;;;19.87;78.58;102395.56;5068646;28;19913;-53
2022/04/15 01:49:50;;;;;;;;;;;;;;;19.93;77.42;102399.28;5066669;28;19917;-57
2022/04/15 01:52:15;;;;;;;;;;;;;;;19.61;79.37;102394.69;5065630;28;19919;-56
2022/04/15 01:54:41;;;;;;;;;;;;;;;19.73;78.95;102394.81;5060631;28;19972;-59
2022/04/15 01:57:07;;;;;;;;;;;;;;;19.59;78.05;102404.91;5060230;28;19913;-56
2022/04/15 01:59:32;;;;;;;;;;;;;;;18.49;91.41;102411.94;5058795;28;19928;-57
2022/04/15 02:01:57;;;;;;;;;;;;;;;18.54;91.60;102404.03;5045590;28;19924;-55
2022/04/15 02:04:24;;;;;;;;;;;;;;;18.28;94.59;102400.31;5073263;28;20149;-57
2022/04/15 02:06:49;;;;;;;;;;;;;;;18.33;94.19;102407.81;5067574;28;19924;-55
2022/04/15 02:09:15;;;;;;;;;;;;;;;18.57;91.44;102406.34;5069297;28;19914;-54
2022/04/15 02:11:40;;;;;;;;;;;;;;;18.64;90.76;102409.00;5059514;28;19913;-56
2022/04/15 02:14:06;;;;;;;;;;;;;;;19.03;85.30;102414.56;5066848;28;19925;-54
2022/04/15 02:16:32;;;;;;;;;;;;;;;19.16;82.78;102422.66;5072226;28;19923;-55
2022/04/15 02:18:57;;;;;;;;;;;;;;;19.20;81.53;102420.34;5071080;28;19917;-58
2022/04/15 02:21:22;;;;;;;;;;;;;;;19.36;80.80;102416.31;5063660;28;19912;-58
2022/04/15 02:23:48;;;;;;;;;;;;;;;19.12;82.35;102415.16;5063559;28;19948;-57
2022/04/15 02:26:13;;;;;;;;;;;;;;;19.10;82.07;102423.53;5069278;28;19923;-56
2022/04/15 02:28:39;;;;;;;;;;;;;;;19.02;82.11;102424.59;5062532;28;19999;-58
2022/04/15 02:31:04;;;;;;;;;;;;;;;19.18;82.13;102420.56;5070718;28;19928;-56
2022/04/15 02:33:30;;;;;;;;;;;;;;;18.94;83.88;102413.97;5062818;28;19968;-56
2022/04/15 02:35:55;;;;;;;;;;;;;;;18.82;84.18;102412.94;5060574;28;19916;-57
2022/04/15 02:38:20;;;;;;;;;;;;;;;18.67;88.32;102419.41;5062355;28;19912;-56
2022/04/15 02:40:46;;;;;;;;;;;;;;;19.05;83.84;102426.88;5072301;28;19924;-56
2022/04/15 02:43:12;;;;;;;;;;;;;;;18.94;84.15;102422.09;5066075;28;19916;-57
2022/04/15 02:45:37;;;;;;;;;;;;;;;19.12;83.10;102426.84;5055352;28;19917;-56
2022/04/15 02:48:03;;;;;;;;;;;;;;;19.42;79.87;102431.72;5051059;28;19913;-57
2022/04/15 02:50:29;;;;;;;;;;;;;;;19.34;80.49;102435.50;5053678;28;19913;-55
2022/04/15 02:52:55;;;;;;;;;;;;;;;19.38;79.59;102419.63;5055280;28;19923;-54
2022/04/15 02:55:21;;;;;;;;;;;;;;;19.42;80.72;102436.31;5049526;28;19912;-57
2022/04/15 02:57:46;;;;;;;;;;;;;;;19.46;79.93;102438.38;5048555;28;19913;-57
2022/04/15 03:00:14;;;;;;;;;;;;;;;19.53;78.80;102441.06;5055018;28;19932;-56
2022/04/15 03:02:39;;;;;;;;;;;;;;;19.52;78.90;102436.69;5055329;28;19935;-59
2022/04/15 03:05:06;;;;;;;;;;;;;;;19.52;79.44;102436.69;5055246;28;19976;-56
2022/04/15 03:07:32;;;;;;;;;;;;;;;19.43;79.97;102429.84;5053050;28;19919;-57
2022/04/15 03:09:57;;;;;;;;;;;;;;;19.27;80.76;102434.72;5051637;28;20194;-57
2022/04/15 03:12:22;;;;;;;;;;;;;;;19.41;78.63;102440.91;5048420;28;19913;-56
2022/04/15 03:14:49;;;;;;;;;;;;;;;19.34;78.72;102445.53;5054006;28;19925;-59
2022/04/15 03:17:14;;;;;;;;;;;;;;;19.49;77.67;102442.53;5054967;28;19913;-57
2022/04/15 03:19:40;;;;;;;;;;;;;;;19.53;76.52;102442.94;5054813;28;19968;-56
2022/04/15 03:22:05;;;;;;;;;;;;;;;19.40;77.05;102443.84;5039522;28;19924;-57
2022/04/15 03:24:31;;;;;;;;;;;;;;;19.56;75.35;102450.66;5028093;28;19914;-57
2022/04/15 03:26:56;;;;;;;;;;;;;;;19.44;74.62;102447.78;5031444;28;19921;-56
2022/04/15 03:29:22;;;;;;;;;;;;;;;19.46;74.53;102451.13;5042276;28;19920;-57
2022/04/15 03:31:47;;;;;;;;;;;;;;;19.25;74.65;102452.22;5047765;28;19965;-57
2022/04/15 03:34:13;;;;;;;;;;;;;;;18.82;80.90;102453.59;5051361;28;19969;-56
2022/04/15 03:36:40;;;;;;;;;;;;;;;18.99;79.85;102454.84;5051409;28;19913;-58
2022/04/15 03:39:06;;;;;;;;;;;;;;;19.16;78.58;102457.91;5054762;28;19928;-53
2022/04/15 03:41:31;;;;;;;;;;;;;;;19.04;79.33;102454.22;5047846;28;20012;-59
2022/04/15 03:43:57;;;;;;;;;;;;;;;18.92;81.48;102454.00;5053127;28;19927;-56
2022/04/15 03:46:23;;;;;;;;;;;;;;;19.02;80.09;102462.53;5037018;28;19912;-57
2022/04/15 03:48:48;;;;;;;;;;;;;;;18.87;81.89;102464.63;5047972;28;19920;-57
2022/04/15 03:51:13;;;;;;;;;;;;;;;18.92;81.02;102456.72;5054054;28;19985;-55
2022/04/15 03:53:39;;;;;;;;;;;;;;;19.02;80.25;102458.97;5053250;28;19970;-57
2022/04/15 03:56:06;;;;;;;;;;;;;;;19.10;79.22;102461.47;5045026;28;19916;-57
2022/04/15 03:58:33;;;;;;;;;;;;;;;19.11;79.66;102462.28;5053292;28;19936;-56
2022/04/15 04:00:59;;;;;;;;;;;;;;;19.18;79.06;102476.69;5053837;28;19989;-57
2022/04/15 04:03:24;;;;;;;;;;;;;;;19.14;78.89;102462.72;5053741;28;19924;-57
2022/04/15 04:05:49;;;;;;;;;;;;;;;19.06;79.99;102466.50;5043808;28;19913;-57
2022/04/15 04:08:15;;;;;;;;;;;;;;;19.03;80.80;102469.63;5039198;28;19920;-57
2022/04/15 04:10:41;;;;;;;;;;;;;;;19.24;79.33;102470.41;5047853;28;19920;-56
2022/04/15 04:13:06;;;;;;;;;;;;;;;19.23;79.47;102471.44;5052338;28;19913;-58
2022/04/15 04:15:32;;;;;;;;;;;;;;;19.29;78.81;102469.78;5041868;28;19952;-55
2022/04/15 04:17:57;;;;;;;;;;;;;;;19.24;79.65;102472.25;5028041;28;19992;-58
2022/04/15 04:20:23;;;;;;;;;;;;;;;19.30;79.33;102472.25;5048578;28;19917;-58
2022/04/15 04:22:48;;;;;;;;;;;;;;;19.43;77.74;102470.53;5045757;28;19924;-58
2022/04/15 04:25:14;;;;;;;;;;;;;;;19.10;79.88;102474.19;5026832;28;19917;-56
2022/04/15 04:27:40;;;;;;;;;;;;;;;19.29;78.71;102480.63;5051181;28;19913;-60
2022/04/15 04:30:06;;;;;;;;;;;;;;;19.20;78.94;102483.53;5053280;28;19913;-53
2022/04/15 04:32:32;;;;;;;;;;;;;;;19.36;78.17;102486.84;5043534;28;19936;-56
2022/04/15 04:34:57;;;;;;;;;;;;;;;19.23;80.06;102487.72;5050267;28;19949;-58
2022/04/15 04:37:23;;;;;;;;;;;;;;;19.19;80.38;102491.91;5050227;28;19924;-57
2022/04/15 04:39:48;;;;;;;;;;;;;;;19.17;80.17;102488.59;5053310;28;19924;-57
2022/04/15 04:42:14;;;;;;;;;;;;;;;19.25;79.14;102488.34;5048652;28;19936;-57
2022/04/15 04:44:39;;;;;;;;;;;;;;;19.30;78.80;102491.22;5058144;28;19916;-56
2022/04/15 04:47:06;;;;;;;;;;;;;;;19.28;79.56;102493.31;5060441;28;19960;-57
2022/04/15 04:49:31;;;;;;;;;;;;;;;19.24;79.20;102493.97;5060187;28;19950;-54
2022/04/15 04:51:57;;;;;;;;;;;;;;;19.26;79.80;102497.28;5057073;28;19913;-55
2022/04/15 04:54:22;;;;;;;;;;;;;;;19.31;79.52;102506.47;5054533;28;19917;-57
2022/04/15 04:56:47;;;;;;;;;;;;;;;19.13;81.04;102503.59;5061068;28;19952;-56
2022/04/15 04:59:13;;;;;;;;;;;;;;;19.03;83.16;102509.44;5054052;28;19958;-57
2022/04/15 05:01:39;;;;;;;;;;;;;;;19.28;81.17;102515.03;5065718;28;19912;-57
2022/04/15 05:04:04;;;;;;;;;;;;;;;19.40;79.83;102514.38;5069400;28;19917;-55
2022/04/15 05:06:29;;;;;;;;;;;;;;;19.25;80.40;102515.47;5067213;28;19945;-57
2022/04/15 05:08:55;;;;;;;;;;;;;;;19.33;79.92;102520.63;5069979;28;19940;-57
2022/04/15 05:11:21;;;;;;;;;;;;;;;19.30;80.07;102521.06;5062347;28;19913;-57
2022/04/15 05:13:46;;;;;;;;;;;;;;;19.37;79.83;102522.91;5059903;28;19940;-57
2022/04/15 05:16:11;;;;;;;;;;;;;;;19.41;79.02;102521.47;5063888;28;19994;-55
2022/04/15 05:18:37;;;;;;;;;;;;;;;19.14;80.30;102525.09;5055388;28;19938;-58
2022/04/15 05:21:03;;;;;;;;;;;;;;;19.36;78.48;102519.41;5059878;28;19927;-57
2022/04/15 05:23:28;;;;;;;;;;;;;;;19.51;77.77;102534.59;5067151;28;19912;-56
2022/04/15 05:25:54;;;;;;;;;;;;;;;19.73;75.14;102535.09;5058889;28;19917;-57
2022/04/15 05:28:19;;;;;;;;;;;;;;;19.89;73.41;102540.06;5060101;28;19944;-58
2022/04/15 05:30:45;;;;;;;;;;;;;;;19.94;72.80;102541.31;5060369;28;20008;-55
2022/04/15 05:33:10;;;;;;;;;;;;;;;19.94;71.78;102547.56;5066882;28;19935;-55
2022/04/15 05:35:36;;;;;;;;;;;;;;;19.92;71.63;102549.66;5056180;28;19913;-57
2022/04/15 05:38:02;;;;;;;;;;;;;;;20.19;69.96;102544.91;5059857;28;19936;-59
2022/04/15 05:40:30;;;;;;;;;;;;;;;19.92;70.80;102558.66;5056023;28;19981;-57
2022/04/15 05:42:56;;;;;;;;;;;;;;;19.65;73.17;102552.47;5056351;28;20092;-57
2022/04/15 05:45:21;;;;;;;;;;;;;;;19.74;73.33;102556.63;5057109;28;19940;-57
2022/04/15 05:47:46;;;;;;;;;;;;;;;20.00;71.66;102567.59;5059177;28;19913;-58
2022/04/15 05:50:12;;;;;;;;;;;;;;;19.92;71.35;102563.22;5057462;28;19927;-58
2022/04/15 05:52:37;;;;;;;;;;;;;;;19.80;72.07;102570.38;5058723;28;19913;-57
2022/04/15 05:55:03;;;;;;;;;;;;;;;19.80;71.59;102568.47;5069080;28;19912;-59
2022/04/15 05:57:28;;;;;;;;;;;;;;;19.55;71.30;102574.63;5069692;28;19920;-57
2022/04/15 05:59:54;;;;;;;;;;;;;;;19.69;70.37;102569.16;5076005;28;19931;-57
2022/04/15 06:02:19;;;;;;;;;;;;;;;19.73;68.84;102576.66;5065055;28;19917;-55
2022/04/15 06:04:45;;;;;;;;;;;;;;;19.68;67.65;102575.63;5065429;28;19913;-56
2022/04/15 06:07:10;;;;;;;;;;;;;;;19.73;67.35;102575.81;5052014;28;19977;-55
2022/04/15 06:09:35;;;;;;;;;;;;;;;19.75;66.63;102581.88;5062227;28;19979;-58
2022/04/15 06:12:01;;;;;;;;;;;;;;;19.59;67.49;102594.03;5057753;28;19909;-58
2022/04/15 06:14:33;;;;;;;;;;;;;;;19.78;64.71;102593.13;5057322;28;19984;-57
2022/04/15 06:16:58;;;;;;;;;;;;;;;19.90;63.36;102595.16;5063266;28;19959;-58
2022/04/15 06:19:24;;;;;;;;;;;;;;;19.97;61.77;102604.16;5058296;28;19920;-59
2022/04/15 06:21:49;;;;;;;;;;;;;;;20.11;59.26;102602.22;5061150;28;19920;-58
2022/04/15 06:24:15;;;;;;;;;;;;;;;20.19;58.48;102607.38;5065737;28;19992;-58
2022/04/15 06:26:40;;;;;;;;;;;;;;;20.37;57.39;102607.69;5066209;28;19912;-56
2022/04/15 06:29:06;;;;;;;;;;;;;;;20.39;56.81;102611.88;5066558;28;19924;-57
2022/04/15 06:31:31;;;;;;;;;;;;;;;20.19;57.15;102615.53;5062952;28;19917;-57
2022/04/15 06:33:57;;;;;;;;;;;;;;;20.09;57.13;102619.75;5063605;28;19917;-58
2022/04/15 06:36:22;;;;;;;;;;;;;;;20.13;56.52;102621.00;5062665;28;19970;-59
2022/04/15 06:38:48;;;;;;;;;;;;;;;20.28;55.65;102631.56;5064491;28;19976;-59
2022/04/15 06:41:13;;;;;;;;;;;;;;;20.31;55.11;102637.41;5071974;28;19943;-60
2022/04/15 06:43:39;;;;;;;;;;;;;;;20.43;54.63;102637.56;5061235;28;19952;-59
2022/04/15 06:46:05;;;;;;;;;;;;;;;19.96;55.33;102639.66;5072495;28;19931;-56
2022/04/15 06:48:30;;;;;;;;;;;;;;;20.03;54.18;102637.75;5072611;28;19916;-57
2022/04/15 06:50:55;;;;;;;;;;;;;;;20.10;54.37;102637.72;5063744;28;19923;-58
2022/04/15 06:53:24;;;;;;;;;;;;;;;19.99;54.71;102633.81;5075539;28;19935;-59
2022/04/15 06:55:49;;;;;;;;;;;;;;;20.19;54.46;102639.97;5068225;28;20608;-59
2022/04/15 06:58:15;;;;;;;;;;;;;;;20.59;52.86;102632.66;5062023;28;19924;-57
2022/04/15 07:00:40;;;;;;;;;;;;;;;20.68;51.92;102639.47;5063353;28;19928;-60
2022/04/15 07:03:06;;;;;;;;;;;;;;;20.81;51.62;102643.19;5055479;28;19913;-58
2022/04/15 07:05:31;;;;;;;;;;;;;;;20.85;51.20;102638.97;5062029;28;19913;-58
2022/04/15 07:07:57;;;;;;;;;;;;;;;20.74;51.06;102648.66;5055988;28;19917;-59
2022/04/15 07:10:22;;;;;;;;;;;;;;;20.71;51.22;102644.47;5070137;28;19940;-57
2022/04/15 07:12:49;;;;;;;;;;;;;;;20.96;50.11;102640.97;5065397;28;19909;-55
2022/04/15 07:15:14;;;;;;;;;;;;;;;21.04;50.29;102645.31;5068437;28;19917;-58
2022/04/15 07:17:39;;;;;;;;;;;;;;;21.12;49.28;102649.63;5062173;28;19928;-60
2022/04/15 07:20:05;;;;;;;;;;;;;;;20.16;52.08;102643.13;5061294;28;19952;-57
2022/04/15 07:22:31;;;;;;;;;;;;;;;20.68;51.15;102647.63;5059981;28;19913;-58
2022/04/15 07:24:56;;;;;;;;;;;;;;;21.20;48.50;102646.63;5062131;28;19913;-57
2022/04/15 07:27:21;;;;;;;;;;;;;;;21.22;47.70;102646.41;5065414;28;19928;-58
2022/04/15 07:29:47;;;;;;;;;;;;;;;21.01;47.81;102657.47;5061528;28;20375;-59
2022/04/15 07:32:19;;;;;;;;;;;;;;;20.88;48.21;102661.13;5070442;28;20043;-58
2022/04/15 07:34:45;;;;;;;;;;;;;;;21.13;47.60;102656.75;5060616;28;19984;-59
2022/04/15 07:37:10;;;;;;;;;;;;;;;20.79;48.50;102656.97;5064116;28;19912;-57
2022/04/15 07:39:36;;;;;;;;;;;;;;;21.21;46.96;102667.31;5065647;28;19916;-59
2022/04/15 07:42:01;;;;;;;;;;;;;;;21.18;46.84;102660.47;5063374;28;19944;-59
2022/04/15 07:44:27;;;;;;;;;;;;;;;21.21;46.71;102664.59;5065841;28;20050;-58
2022/04/15 07:46:52;;;;;;;;;;;;;;;21.39;46.19;102663.84;5062259;28;19920;-60
2022/04/15 07:49:17;;;;;;;;;;;;;;;21.45;46.50;102664.81;5070990;28;19917;-58
2022/04/15 07:51:43;;;;;;;;;;;;;;;21.20;47.23;102668.38;5039880;28;19984;-56
2022/04/15 07:54:08;;;;;;;;;;;;;;;21.57;46.22;102656.75;5057599;28;19913;-59
2022/04/15 07:56:34;;;;;;;;;;;;;;;21.43;46.32;102669.63;5052162;28;19944;-59
2022/04/15 07:59:00;;;;;;;;;;;;;;;21.53;45.84;102669.97;5038327;28;19913;-59
2022/04/15 08:01:27;;;;;;;;;;;;;;;22.00;45.09;102674.09;5055399;28;19913;-58
2022/04/15 08:03:53;;;;;;;;;;;;;;;22.17;44.40;102680.59;5056891;28;19913;-57
2022/04/15 08:06:18;;;;;;;;;;;;;;;22.24;44.06;102674.22;5059505;28;19914;-58
2022/04/15 08:08:44;;;;;;;;;;;;;;;22.18;44.09;102675.97;5060544;28;19923;-58
2022/04/15 08:11:09;;;;;;;;;;;;;;;22.51;43.06;102673.88;5057413;28;19920;-56
2022/04/15 08:13:34;;;;;;;;;;;;;;;22.43;43.46;102675.84;5058626;28;20000;-59
2022/04/15 08:16:00;;;;;;;;;;;;;;;22.39;43.57;102679.25;5057659;28;19912;-56
2022/04/15 08:18:25;;;;;;;;;;;;;;;22.19;44.02;102686.66;5060651;28;19956;-58
2022/04/15 08:20:52;;;;;;;;;;;;;;;22.43;43.16;102683.19;5056691;28;19917;-58
2022/04/15 08:23:17;;;;;;;;;;;;;;;22.36;43.95;102686.00;5053770;28;19913;-58
2022/04/15 08:25:43;;;;;;;;;;;;;;;22.51;42.64;102688.34;5057958;28;19919;-59
2022/04/15 08:28:09;;;;;;;;;;;;;;;22.45;43.57;102686.50;5058277;28;19924;-57
2022/04/15 08:30:34;;;;;;;;;;;;;;;22.13;43.42;102687.53;5057942;28;19921;-59
2022/04/15 08:33:02;;;;;;;;;;;;;;;22.47;43.32;102687.97;5054559;28;19913;-59
2022/04/15 08:35:28;;;;;;;;;;;;;;;22.72;42.87;102687.00;5058929;28;19913;-59
2022/04/15 08:37:53;;;;;;;;;;;;;;;22.99;41.38;102696.66;5056991;28;19913;-58
2022/04/15 08:40:19;;;;;;;;;;;;;;;22.67;41.56;102695.03;5056674;28;19916;-59
2022/04/15 08:42:45;;;;;;;;;;;;;;;22.48;41.72;102706.00;5056067;28;19917;-60
2022/04/15 08:45:12;;;;;;;;;;;;;;;22.78;41.15;102701.59;5056494;28;19992;-59
2022/04/15 08:47:38;;;;;;;;;;;;;;;22.69;41.35;102711.16;5054409;28;19917;-59
2022/04/15 08:50:05;;;;;;;;;;;;;;;22.95;41.23;102715.38;5060448;28;19913;-58
2022/04/15 08:52:31;;;;;;;;;;;;;;;22.88;41.75;102710.03;5057989;28;19984;-59
2022/04/15 08:54:58;;;;;;;;;;;;;;;23.25;40.04;102713.66;5057069;28;19920;-59
2022/04/15 08:57:23;;;;;;;;;;;;;;;23.28;39.72;102713.22;5055611;28;19912;-59
2022/04/15 08:59:49;;;;;;;;;;;;;;;23.36;39.67;102712.84;5050822;28;20501;-58
2022/04/15 09:02:28;;;;;;;;;;;;;;;23.59;39.23;102714.78;5055940;28;19971;-60
2022/04/15 09:04:55;;;;;;;;;;;;;;;23.09;40.71;102721.47;5052195;28;19927;-58
2022/04/15 09:07:21;;;;;;;;;;;;;;;23.35;40.00;102719.38;5044587;28;19913;-57
2022/04/15 09:09:53;;;;;;;;;;;;;;;23.55;39.54;102724.50;5049943;28;19913;-59
2022/04/15 09:12:19;;;;;;;;;;;;;;;23.63;39.37;102726.88;5056251;28;19916;-59
2022/04/15 09:14:45;;;;;;;;;;;;;;;23.10;40.57;102727.78;5059877;28;19913;-58
2022/04/15 09:17:11;;;;;;;;;;;;;;;23.02;40.46;102727.03;5059807;28;19920;-59
2022/04/15 09:19:37;;;;;;;;;;;;;;;23.27;39.84;102733.41;5053773;28;19943;-59
2022/04/15 09:22:03;;;;;;;;;;;;;;;23.45;39.66;102730.56;5056315;28;19913;-57
2022/04/15 09:24:31;;;;;;;;;;;;;;;23.40;40.26;102733.16;5059032;28;19917;-59
2022/04/15 09:26:57;;;;;;;;;;;;;;;24.38;39.08;102733.66;5051550;28;19924;-59
2022/04/15 09:29:25;;;;;;;;;;;;;;;24.11;38.88;102745.97;5061544;28;19924;-59
2022/04/15 09:31:54;;;;;;;;;;;;;;;24.15;39.18;102744.41;5054434;28;19913;-57
2022/04/15 09:34:19;;;;;;;;;;;;;;;24.59;38.12;102743.91;5058518;28;19913;-59
2022/04/15 09:36:46;;;;;;;;;;;;;;;24.81;37.84;102751.47;5057312;28;19928;-59
2022/04/15 09:39:14;;;;;;;;;;;;;;;24.74;37.47;102745.25;5060870;28;19924;-59
2022/04/15 09:41:41;;;;;;;;;;;;;;;24.80;37.78;102749.81;5062958;28;19920;-60
2022/04/15 09:44:10;;;;;;;;;;;;;;;24.69;37.65;102756.13;5057633;28;19924;-58
2022/04/15 09:46:35;;;;;;;;;;;;;;;24.25;38.66;102754.72;5058961;28;19916;-58
2022/04/15 09:49:06;;;;;;;;;;;;;;;24.42;38.61;102754.78;5059430;28;19913;-58
2022/04/15 09:51:37;;;;;;;;;;;;;;;24.57;38.22;102754.28;5057932;28;19913;-59
2022/04/15 09:54:07;;;;;;;;;;;;;;;24.32;38.66;102762.78;5056138;28;19959;-60
2022/04/15 09:56:36;;;;;;;;;;;;;;;24.82;37.60;102757.75;5059390;28;19913;-58
2022/04/15 09:59:04;;;;;;;;;;;;;;;25.26;37.49;102755.22;5052856;28;19924;-58
2022/04/15 10:01:30;;;;;;;;;;;;;;;25.16;37.01;102757.81;5055956;28;19932;-59
2022/04/15 10:03:55;;;;;;;;;;;;;;;25.48;36.42;102759.97;5060831;28;19916;-59
2022/04/15 10:06:21;;;;;;;;;;;;;;;24.73;37.83;102760.00;5061774;28;19913;-59
2022/04/15 10:08:47;;;;;;;;;;;;;;;25.11;37.12;102765.91;5052524;28;19913;-59
2022/04/15 10:11:14;;;;;;;;;;;;;;;25.04;37.17;102766.91;5057910;28;19924;-61
2022/04/15 10:13:43;;;;;;;;;;;;;;;25.30;36.33;102763.78;5060661;28;19912;-61
2022/04/15 10:16:09;;;;;;;;;;;;;;;25.30;36.74;102767.31;5061270;28;19923;-61
2022/04/15 10:18:34;;;;;;;;;;;;;;;24.64;36.94;102759.56;5057955;28;19917;-59
2022/04/15 10:21:03;;;;;;;;;;;;;;;24.94;37.30;102760.41;5057814;28;19991;-58
2022/04/15 10:23:28;;;;;;;;;;;;;;;25.10;37.32;102756.88;5040588;28;19952;-60
2022/04/15 10:25:55;;;;;;;;;;;;;;;25.10;36.95;102764.25;5054966;28;19921;-60
2022/04/15 10:28:37;;;;;;;;;;;;;;;24.83;37.77;102771.19;5057781;28;19981;-59
2022/04/15 10:31:05;;;;;;;;;;;;;;;24.96;37.25;102763.72;5057472;28;19963;-59
2022/04/15 10:33:31;;;;;;;;;;;;;;;24.89;37.48;102763.88;5060411;28;20387;-60
2022/04/15 10:35:58;;;;;;;;;;;;;;;24.80;37.82;102765.38;5061113;28;19928;-60
2022/04/15 10:38:23;;;;;;;;;;;;;;;24.74;38.37;102770.72;5061417;28;19919;-59
2022/04/15 10:40:49;;;;;;;;;;;;;;;25.08;37.55;102766.41;5056368;28;19980;-59
2022/04/15 10:43:17;;;;;;;;;;;;;;;24.99;37.21;102757.75;5061294;28;19933;-57
2022/04/15 10:45:43;;;;;;;;;;;;;;;24.94;37.37;102765.88;5058105;28;19917;-59
2022/04/15 10:48:08;;;;;;;;;;;;;;;24.87;37.50;102766.03;5062728;28;19913;-56
2022/04/15 10:50:35;;;;;;;;;;;;;;;25.19;36.60;102760.03;5064706;28;20055;-58
2022/04/15 10:53:16;;;;;;;;;;;;;;;24.82;36.92;102755.84;5060158;28;19917;-59
2022/04/15 10:55:43;;;;;;;;;;;;;;;25.05;36.73;102754.06;5036028;28;19913;-60
2022/04/15 10:58:12;;;;;;;;;;;;;;;24.91;37.19;102759.00;5064518;28;19935;-60
2022/04/15 11:03:23;;;;;;;;;;;;;;;25.07;37.11;102760.13;5057344;28;19912;-60
2022/04/15 11:05:50;;;;;;;;;;;;;;;25.05;36.97;102752.13;5057654;28;19946;-58
2022/04/15 11:08:19;;;;;;;;;;;;;;;24.93;37.16;102756.88;5055188;28;19916;-60
2022/04/15 11:11:07;;;;;;;;;;;;;;;25.10;37.33;102756.03;5052660;28;19931;-59
2022/04/15 11:13:53;;;;;;;;;;;;;;;24.87;37.85;102760.56;5040727;28;19913;-60
2022/04/15 11:16:21;;;;;;;;;;;;;;;24.97;37.27;102754.44;5046181;28;19913;-60
2022/04/15 11:18:53;;;;;;;;;;;;;;;24.92;37.60;102753.28;5064551;28;19913;-59
2022/04/15 11:21:20;;;;;;;;;;;;;;;24.90;37.12;102754.59;5068081;28;19917;-59
2022/04/15 11:24:10;;;;;;;;;;;;;;;24.81;37.44;102751.47;5067519;28;19927;-60
2022/04/15 11:26:37;;;;;;;;;;;;;;;25.04;37.30;102750.47;5061981;28;19921;-59
2022/04/15 11:29:04;;;;;;;;;;;;;;;24.85;37.27;102752.63;5063018;28;19913;-60
2022/04/15 11:31:34;;;;;;;;;;;;;;;24.87;37.07;102752.34;5065402;28;19923;-61
2022/04/15 11:34:06;;;;;;;;;;;;;;;25.01;37.24;102747.41;5067929;28;19936;-60
2022/04/15 11:36:33;;;;;;;;;;;;;;;24.97;37.67;102751.72;5043532;28;19936;-59
2022/04/15 11:38:59;;;;;;;;;;;;;;;25.00;37.33;102749.31;5066364;28;19932;-59
2022/04/15 11:41:25;;;;;;;;;;;;;;;24.80;37.77;102752.53;5060628;28;19928;-58
2022/04/15 11:43:55;;;;;;;;;;;;;;;24.84;37.93;102750.13;5066180;28;19913;-61
2022/04/15 11:46:20;;;;;;;;;;;;;;;24.89;37.60;102759.25;5066901;28;19921;-60
2022/04/15 11:48:45;;;;;;;;;;;;;;;24.80;37.59;102759.91;5067353;28;19984;-60
2022/04/15 11:51:11;;;;;;;;;;;;;;;24.51;37.99;102757.16;5066606;28;19913;-59
2022/04/15 11:53:36;;;;;;;;;;;;;;;24.60;38.04;102758.41;5055947;28;19913;-60
2022/04/15 11:56:02;;;;;;;;;;;;;;;24.53;38.31;102752.25;5061982;28;19972;-59
2022/04/15 11:58:33;;;;;;;;;;;;;;;24.67;38.27;102756.34;5061983;28;19913;-58
2022/04/15 12:00:59;;;;;;;;;;;;;;;24.88;37.95;102762.22;5066959;28;19917;-59
2022/04/15 12:03:25;;;;;;;;;;;;;;;24.93;37.71;102762.34;5066213;28;19927;-59
2022/04/15 12:05:52;;;;;;;;;;;;;;;25.12;37.03;102762.09;5073885;28;19968;-61
2022/04/15 12:08:18;;;;;;;;;;;;;;;25.23;36.75;102763.94;5071679;28;19916;-60
2022/04/15 12:10:44;;;;;;;;;;;;;;;25.17;36.95;102762.19;5063609;28;19978;-60
2022/04/15 12:13:10;;;;;;;;;;;;;;;24.94;38.05;102758.53;5054666;28;19917;-59
2022/04/15 12:15:36;;;;;;;;;;;;;;;25.00;38.72;102753.94;5057741;28;19972;-59
2022/04/15 12:18:05;;;;;;;;;;;;;;;25.18;37.95;102766.59;5063732;28;19922;-60
2022/04/15 12:20:34;;;;;;;;;;;;;;;25.20;38.19;102758.97;5059341;28;19981;-60
2022/04/15 12:23:01;;;;;;;;;;;;;;;25.22;38.17;102761.44;5061983;28;19967;-59
2022/04/15 12:25:26;;;;;;;;;;;;;;;25.29;37.60;102756.63;5064448;28;19959;-60
2022/04/15 12:27:53;;;;;;;;;;;;;;;25.45;36.95;102758.53;5063321;28;19912;-59
2022/04/15 12:30:36;;;;;;;;;;;;;;;25.34;36.46;102765.75;5062977;28;19976;-61
2022/04/15 12:33:10;;;;;;;;;;;;;;;25.63;36.36;102760.22;5070131;28;19951;-60
2022/04/15 12:35:36;;;;;;;;;;;;;;;25.31;36.60;102755.28;5061336;28;19935;-60